ADDS METAR Data INFO
IDs: Format: Raw Decoded Include TAF

Data at: 0935 UTC 25 Jun 2018

KOPL 250915Z AUTO 15007KT 10SM CLR 25/24 A2998 RMK AO2 T02450238
KOPL 250855Z AUTO 15006KT 10SM SCT020 24/24 A2998 RMK AO2 T02430240
KOPL 250835Z AUTO 16004KT 10SM BKN020 23/23 A2998 RMK AO2 T02320229
KOPL 250815Z AUTO 00000KT 7SM BKN020 24/23 A2999 RMK AO2 T02350233
KOPL 250755Z AUTO 00000KT 10SM CLR 24/24 A3000 RMK AO2 T02380235
KOPL 250735Z AUTO 14004KT 10SM CLR 24/24 A3000 RMK AO2 T02420238
KOPL 250715Z AUTO 14003KT 10SM CLR 24/24 A3000 RMK AO2 T02410237
KOPL 250655Z AUTO 00000KT 10SM CLR 25/24 A3000 RMK AO2 T02450240
KOPL 250635Z AUTO 00000KT 10SM CLR 24/24 A3001 RMK AO2 T02420236
KOPL 250615Z AUTO 14003KT 10SM CLR 25/24 A3001 RMK AO2 T02500239
KOPL 250555Z AUTO 15004KT 10SM CLR 25/24 A3001 RMK AO2 T02510240 10299 20250 403350232
KOPL 250535Z AUTO 00000KT 10SM CLR 25/24 A3001 RMK AO2 T02520240
KOPL 250515Z AUTO 15004KT 10SM CLR 26/24 A3001 RMK AO2 T02560240
KOPL 250455Z AUTO 17003KT 10SM CLR 26/24 A3001 RMK AO2 T02570240
KOPL 250435Z AUTO 16004KT 10SM CLR 26/24 A3000 RMK AO2 T02600240
KOPL 250415Z AUTO 15005KT 10SM CLR 26/24 A3001 RMK AO2 T02600240
KOPL 250355Z AUTO 18004KT 10SM CLR 26/24 A3001 RMK AO2 T02600237
KOPL 250335Z AUTO 17004KT 10SM CLR 26/24 A3001 RMK AO2 T02600237
KOPL 250315Z AUTO 17004KT 10SM CLR 26/24 A3000 RMK AO2 T02620235
KOPL 250255Z AUTO 19004KT 10SM CLR 26/24 A3000 RMK AO2 T02640235
KOPL 250235Z AUTO 20004KT 10SM CLR 27/24 A2999 RMK AO2 T02670235
KOPL 250215Z AUTO 19004KT 10SM CLR 27/24 A2998 RMK AO2 T02680235
KOPL 250155Z AUTO 20004KT 10SM CLR 27/24 A2998 RMK AO2 LTG DSNT SW T02720237
KOPL 250135Z AUTO 19005KT 10SM CLR 28/24 A2998 RMK AO2 T02770235
KOPL 250115Z AUTO 19007KT 10SM CLR 28/23 A2997 RMK AO2 T02810233
KOPL 250055Z AUTO 21006KT 10SM CLR 29/23 A2996 RMK AO2 T02850232
KOPL 250035Z AUTO 20006KT 10SM SCT040 29/23 A2996 RMK AO2 T02910234
KOPL 250015Z AUTO 20007KT 10SM CLR 30/23 A2995 RMK AO2 T02960234
KOPL 242355Z AUTO 20007KT 10SM CLR 30/23 A2995 RMK AO2 T02990232 10335 20299
KOPL 242335Z AUTO 20010KT 10SM SCT034 30/23 A2996 RMK AO2 T03000231
KOPL 242315Z AUTO 19008G16KT 10SM SCT034 31/23 A2995 RMK AO2 T03060230
KOPL 242255Z AUTO 18012G15KT 10SM BKN032 SCT045 32/24 A2995 RMK AO2 T03180235
KOPL 242235Z AUTO 18007G15KT 10SM SCT030 SCT045 32/24 A2994 RMK AO2 T03210241
KOPL 242215Z AUTO 20010G16KT 10SM CLR 32/24 A2994 RMK AO2 T03190240
KOPL 242155Z AUTO 18011G16KT 10SM SCT036 SCT045 SCT050 32/24 A2995 RMK AO2 T03170238
KOPL 242135Z AUTO 10SM SCT036 SCT045 BKN080 30/24 A2996 RMK AO2 T03040243
KOPL 242115Z AUTO 18010G16KT 10SM CLR 32/24 A2996 RMK AO2 LTG DSNT NE T03240236
KOPL 242055Z AUTO 18013G18KT 10SM SCT045 32/23 A2997 RMK AO2 T03210233
KOPL 242035Z AUTO 19011G18KT 10SM SCT045 33/23 A2996 RMK AO2 T03340227
KOPL 242015Z AUTO 20011G15KT 10SM SCT045 SCT050 33/22 A2997 RMK AO2 T03330217
KOPL 241955Z AUTO 21009G15KT 10SM BKN045 BKN050 33/23 A2997 RMK AO2 LTG DSNT NE T03310225
KOPL 241935Z AUTO 19009KT 10SM SCT045 33/23 A2998 RMK AO2 LTG DSNT N T03310228
KOPL 241915Z AUTO 20010KT 10SM SCT045 SCT070 SCT090 33/23 A2998 RMK AO2 T03260226
KOPL 241855Z AUTO 22009KT 10SM SCT038 SCT047 BKN075 32/24 A2998 RMK AO2 T03200237
KOPL 241835Z AUTO 21009G14KT 10SM BKN040 BKN050 BKN060 31/23 A2998 RMK AO2 T03110229
KOPL 241815Z AUTO 20008KT 170V230 10SM SCT040 SCT048 33/24 A2999 RMK AO2 T03300235
KOPL 241755Z AUTO 19011G16KT 10SM SCT049 SCT065 33/23 A2999 RMK AO2 T03260234 10326 20247
KOPL 241735Z AUTO 19012G17KT 10SM SCT039 SCT065 32/22 A2999 RMK AO2 T03220223
KOPL 241715Z AUTO 19010G14KT 10SM BKN039 32/23 A3000 RMK AO2 T03190228
KOPL 241655Z AUTO 19012G16KT 10SM SCT032 SCT038 BKN044 32/23 A2999 RMK AO2 T03160230
KOPL 241635Z AUTO 20010KT 10SM SCT032 BKN044 31/24 A2999 RMK AO2 T03140236
KOPL 241615Z AUTO 20008KT 10SM SCT030 SCT038 31/24 A2999 RMK AO2 T03140241
KOPL 241555Z AUTO 19008KT 10SM SCT028 SCT035 31/24 A2998 RMK AO2 T03070240
KOPL 241535Z AUTO 20008G15KT 10SM SCT030 SCT035 31/24 A2999 RMK AO2 T03050239
KOPL 241515Z AUTO 21009KT 10SM SCT023 SCT032 SCT038 30/24 A2999 RMK AO2 T02980235
KOPL 241455Z AUTO 21007KT 10SM SCT023 BKN029 BKN037 29/24 A2998 RMK AO2 T02910239
KOPL 241435Z AUTO 20008KT 10SM SCT023 SCT031 BKN050 29/24 A2998 RMK AO2 T02940239
KOPL 241415Z AUTO 21008G14KT 10SM BKN019 BKN026 28/24 A2998 RMK AO2 LTG DSNT S T02830238
KOPL 241355Z AUTO 20008KT 10SM BKN017 28/25 A2998 RMK AO2 T02820248
KOPL 241335Z AUTO 21006KT 10SM SCT014 28/25 A2998 RMK AO2 T02800252
KOPL 241315Z AUTO 19007KT 10SM SCT012 28/25 A2997 RMK AO2 T02750250
KOPL 241255Z AUTO 19005KT 10SM CLR 27/25 A2996 RMK AO2 T02670250
KOPL 241235Z AUTO 18006KT 10SM SCT017 SCT024 26/25 A2995 RMK AO2 T02600248
KOPL 241215Z AUTO 17004KT 10SM CLR 25/25 A2995 RMK AO2 T02540246
KOPL 241155Z AUTO 16004KT 10SM CLR 25/24 A2995 RMK AO2 T02460243 10250 20232
KOPL 241135Z AUTO 16003KT 10SM CLR 24/24 A2995 RMK AO2 T02420240
KOPL 241115Z AUTO 16003KT 10SM CLR 24/24 A2995 RMK AO2 T02380236
KOPL 241055Z AUTO 17003KT 10SM CLR 24/24 A2994 RMK AO2 T02400237
KOPL 241035Z AUTO 16003KT 10SM CLR 24/24 A2993 RMK AO2 T02400237
KOPL 241015Z AUTO 17003KT 10SM CLR 24/24 A2993 RMK AO2 T02370235
KOPL 240955Z AUTO 16003KT 10SM CLR 24/23 A2993 RMK AO2 T02350233
KOPL 240935Z AUTO 17003KT 10SM CLR 23/23 A2994 RMK AO2 T02340231
KOPL 240915Z AUTO 15003KT 10SM CLR 24/23 A2994 RMK AO2 T02350231
KOPL 240855Z AUTO 00000KT 10SM SCT017 24/23 A2995 RMK AO2 T02360232
KOPL 240835Z AUTO 00000KT 10SM BKN017 24/24 A2995 RMK AO2 T02400235
KOPL 240815Z AUTO 00000KT 10SM SCT019 24/24 A2994 RMK AO2 T02400236
KOPL 240755Z AUTO 00000KT 10SM SCT027 SCT035 24/24 A2994 RMK AO2 T02400235
KOPL 240735Z AUTO 00000KT 10SM SCT027 SCT033 24/24 A2994 RMK AO2 T02400235
KOPL 240715Z AUTO 12005KT 10SM CLR 24/24 A2993 RMK AO2 T02410235
KOPL 240655Z AUTO 16004KT 10SM CLR 25/24 A2993 RMK AO2 T02450235
KOPL 240635Z AUTO 15005KT 10SM CLR 25/24 A2993 RMK AO2 T02450235
KOPL 240615Z AUTO 16005KT 10SM CLR 25/24 A2992 RMK AO2 T02480236
KOPL 240555Z AUTO 16005KT 10SM CLR 25/24 A2991 RMK AO2 T02500236 10306 20250 403280232
KOPL 240535Z AUTO 16006KT 10SM CLR 25/24 A2992 RMK AO2 T02510236
KOPL 240515Z AUTO 16006KT 10SM CLR 25/24 A2992 RMK AO2 T02520235
KOPL 240455Z AUTO 17007KT 10SM CLR 25/24 A2991 RMK AO2 T02520236
KOPL 240435Z AUTO 17007KT 10SM CLR 25/24 A2992 RMK AO2 T02500235
KOPL 240415Z AUTO 15005KT 10SM CLR 25/24 A2993 RMK AO2 T02520235
KOPL 240355Z AUTO 16004KT 10SM CLR 26/23 A2992 RMK AO2 T02550233
KOPL 240335Z AUTO 18005KT 10SM CLR 26/23 A2992 RMK AO2 T02550232
KOPL 240315Z AUTO 19005KT 10SM CLR 26/23 A2992 RMK AO2 T02600230
KOPL 240255Z AUTO 18005KT 10SM CLR 26/23 A2991 RMK AO2 T02610228
KOPL 240235Z AUTO 19004KT 10SM CLR 26/23 A2990 RMK AO2 T02580230
KOPL 240215Z AUTO 19005KT 10SM CLR 27/23 A2989 RMK AO2 T02650230
KOPL 240155Z AUTO 20005KT 10SM CLR 27/23 A2989 RMK AO2 T02730227
KOPL 240135Z AUTO 20006KT 10SM SCT034 27/23 A2988 RMK AO2 T02710225
KOPL 240115Z AUTO 20005KT 10SM SCT034 28/22 A2988 RMK AO2 T02810220
KOPL 240055Z AUTO 20006KT 10SM SCT034 29/22 A2987 RMK AO2 T02870221
KOPL 240035Z AUTO 21006KT 10SM CLR 30/22 A2987 RMK AO2 T02960220
KOPL 240015Z AUTO 20010KT 10SM CLR 30/22 A2986 RMK AO2 T03010221
KOPL 232355Z AUTO 20011KT 10SM CLR 31/22 A2987 RMK AO2 T03070222 10328 20306
KOPL 232335Z AUTO 22008G17KT 10SM CLR 31/22 A2986 RMK AO2 T03110224
KOPL 232315Z AUTO 21009KT 10SM CLR 31/22 A2986 RMK AO2 T03120224
KOPL 232255Z AUTO 19009G14KT 10SM CLR 32/23 A2986 RMK AO2 T03150225
KOPL 232235Z AUTO 22008KT 10SM CLR 32/23 A2987 RMK AO2 T03160227
KOPL 232215Z AUTO 21011KT 10SM CLR 32/23 A2987 RMK AO2 T03170230
KOPL 232155Z AUTO 21009KT 10SM SCT065 31/23 A2988 RMK AO2 T03120230